EWG803 LIBD-EDDS
Flight info
| Callsign | EWG803 |
|---|---|
| Flight time | N/A |
| Altitude | 34000 |
| Route | PISIP L612 RUPAX DCT AGOMO DCT VESAL DCT BRENO M726 MAH L173 DODIL T127 TEKSI TEKSI1W |
| Aircraft | A320/M-SDE3FGHIRWY/LB1 |
Departure
| Time | 2026-05-04 13:32 |
|---|---|
| Airport | Bari Karol Wojtyła International Airport (LIBD) |
Arrival
| Time | N/A |
|---|---|
| Airport | Stuttgart Airport (EDDS) |
| Time | Latitude | Longitude | Altitude | Speed | Heading |
|---|---|---|---|---|---|
| 2026-05-04 13:16 | 41.13532 | 16.76341 | 145 ft | 0 kts | 160° |
| 2026-05-04 13:24 | 41.13533 | 16.76341 | 143 ft | 1 kts | 160° |
| 2026-05-04 13:24 | 41.13556 | 16.76330 | 142 ft | 4 kts | 166° |
| 2026-05-04 13:25 | 41.13603 | 16.76341 | 140 ft | 4 kts | 243° |
| 2026-05-04 13:25 | 41.13606 | 16.76352 | 139 ft | 1 kts | 248° |
| 2026-05-04 13:27 | 41.13605 | 16.76348 | 139 ft | 3 kts | 248° |
| 2026-05-04 13:27 | 41.13585 | 16.76280 | 142 ft | 12 kts | 249° |
| 2026-05-04 13:27 | 41.13555 | 16.76168 | 145 ft | 11 kts | 254° |
| 2026-05-04 13:28 | 41.13584 | 16.76082 | 145 ft | 14 kts | 314° |
| 2026-05-04 13:28 | 41.13637 | 16.75958 | 146 ft | 18 kts | 255° |
| 2026-05-04 13:28 | 41.13592 | 16.75800 | 153 ft | 19 kts | 250° |
| 2026-05-04 13:28 | 41.13542 | 16.75618 | 156 ft | 23 kts | 250° |
| 2026-05-04 13:29 | 41.13485 | 16.75406 | 159 ft | 26 kts | 249° |
| 2026-05-04 13:29 | 41.13410 | 16.75166 | 165 ft | 29 kts | 248° |
| 2026-05-04 13:29 | 41.13336 | 16.74907 | 173 ft | 31 kts | 251° |
| 2026-05-04 13:29 | 41.13263 | 16.74634 | 180 ft | 33 kts | 249° |
| 2026-05-04 13:30 | 41.13184 | 16.74351 | 197 ft | 32 kts | 250° |
| 2026-05-04 13:30 | 41.13165 | 16.74277 | 190 ft | 16 kts | 257° |
| 2026-05-04 13:30 | 41.13164 | 16.74251 | 200 ft | 13 kts | 272° |
| 2026-05-04 13:30 | 41.13206 | 16.74157 | 190 ft | 12 kts | 302° |
| 2026-05-04 13:31 | 41.13292 | 16.74124 | 191 ft | 15 kts | 20° |
| 2026-05-04 13:31 | 41.13339 | 16.74243 | 200 ft | 18 kts | 71° |
| 2026-05-04 13:31 | 41.13442 | 16.74617 | 176 ft | 77 kts | 69° |
| 2026-05-04 13:31 | 41.13449 | 16.74639 | 175 ft | 80 kts | 69° |
| 2026-05-04 13:32 | 41.13695 | 16.75504 | 155 ft | 134 kts | 69° |
| 2026-05-04 13:32 | 41.14078 | 16.76855 | 249 ft | 171 kts | 69° |
| 2026-05-04 13:32 | 41.14518 | 16.78369 | 852 ft | 182 kts | 68° |
| 2026-05-04 13:32 | 41.15014 | 16.79964 | 1514 ft | 190 kts | 66° |
| 2026-05-04 13:33 | 41.15567 | 16.81621 | 1996 ft | 203 kts | 65° |
| 2026-05-04 13:33 | 41.16111 | 16.83415 | 2450 ft | 219 kts | 67° |
| 2026-05-04 13:33 | 41.16678 | 16.85400 | 2867 ft | 241 kts | 68° |
| 2026-05-04 13:33 | 41.17286 | 16.87563 | 3388 ft | 258 kts | 69° |
| 2026-05-04 13:34 | 41.17886 | 16.89831 | 4222 ft | 262 kts | 68° |
| 2026-05-04 13:34 | 41.18848 | 16.91858 | 5060 ft | 262 kts | 38° |
| 2026-05-04 13:34 | 41.20496 | 16.92834 | 5789 ft | 266 kts | 4° |
| 2026-05-04 13:34 | 41.22342 | 16.92639 | 6610 ft | 268 kts | 347° |
| 2026-05-04 13:35 | 41.24154 | 16.91985 | 7384 ft | 271 kts | 342° |
| 2026-05-04 13:35 | 41.27781 | 16.90349 | 9001 ft | 279 kts | 341° |
| 2026-05-04 13:35 | 41.29634 | 16.89546 | 9809 ft | 282 kts | 342° |
| 2026-05-04 13:36 | 41.31529 | 16.88771 | 10453 ft | 291 kts | 343° |
| 2026-05-04 13:36 | 41.33550 | 16.87984 | 10672 ft | 314 kts | 345° |
| 2026-05-04 13:36 | 41.35704 | 16.87139 | 11099 ft | 328 kts | 341° |
| 2026-05-04 13:36 | 41.37786 | 16.85811 | 11704 ft | 336 kts | 328° |
| 2026-05-04 13:37 | 41.39626 | 16.83870 | 12394 ft | 341 kts | 315° |
| 2026-05-04 13:37 | 41.41221 | 16.81504 | 13098 ft | 345 kts | 312° |
| 2026-05-04 13:37 | 41.42814 | 16.79096 | 13787 ft | 348 kts | 313° |
| 2026-05-04 13:37 | 41.43879 | 16.77486 | 14203 ft | 351 kts | 313° |
| 2026-05-04 13:38 | 41.46049 | 16.74209 | 15038 ft | 354 kts | 312° |
| 2026-05-04 13:38 | 41.47682 | 16.71745 | 15682 ft | 356 kts | 312° |
| 2026-05-04 13:38 | 41.49322 | 16.69264 | 16316 ft | 358 kts | 312° |
| 2026-05-04 13:38 | 41.50413 | 16.67613 | 16727 ft | 359 kts | 312° |
| 2026-05-04 13:39 | 41.52072 | 16.65099 | 17337 ft | 362 kts | 311° |
| 2026-05-04 13:39 | 41.53745 | 16.62562 | 17942 ft | 365 kts | 311° |
| 2026-05-04 13:39 | 41.55424 | 16.60011 | 18531 ft | 367 kts | 311° |
| 2026-05-04 13:39 | 41.57116 | 16.57440 | 19054 ft | 369 kts | 311° |
| 2026-05-04 13:40 | 41.58812 | 16.54854 | 19580 ft | 371 kts | 311° |
| 2026-05-04 13:40 | 41.60516 | 16.52246 | 20115 ft | 373 kts | 311° |
| 2026-05-04 13:40 | 41.62225 | 16.49625 | 20635 ft | 375 kts | 311° |
| 2026-05-04 13:40 | 41.63944 | 16.46994 | 21145 ft | 377 kts | 311° |
| 2026-05-04 13:41 | 41.65674 | 16.44349 | 21649 ft | 379 kts | 311° |
| 2026-05-04 13:41 | 41.67419 | 16.41682 | 22146 ft | 381 kts | 311° |
| 2026-05-04 13:41 | 41.69166 | 16.39007 | 22641 ft | 383 kts | 311° |
| 2026-05-04 13:42 | 41.72692 | 16.33606 | 23577 ft | 387 kts | 310° |
| 2026-05-04 13:42 | 41.74467 | 16.30885 | 23968 ft | 389 kts | 310° |
| 2026-05-04 13:42 | 41.76251 | 16.28143 | 24355 ft | 391 kts | 310° |
| 2026-05-04 13:42 | 41.78042 | 16.25386 | 24742 ft | 393 kts | 310° |
| 2026-05-04 13:43 | 41.79817 | 16.22651 | 25117 ft | 394 kts | 310° |
| 2026-05-04 13:43 | 41.81644 | 16.19833 | 25498 ft | 396 kts | 310° |
| 2026-05-04 13:43 | 41.83454 | 16.17039 | 25875 ft | 398 kts | 310° |
| 2026-05-04 13:43 | 41.85268 | 16.14235 | 26248 ft | 399 kts | 310° |
| 2026-05-04 13:44 | 41.87069 | 16.11449 | 26604 ft | 401 kts | 310° |
| 2026-05-04 13:44 | 41.88898 | 16.08618 | 26982 ft | 402 kts | 310° |
| 2026-05-04 13:44 | 41.90730 | 16.05776 | 27376 ft | 403 kts | 310° |
| 2026-05-04 13:44 | 41.92576 | 16.02935 | 27741 ft | 404 kts | 311° |
| 2026-05-04 13:45 | 41.94460 | 16.00113 | 28101 ft | 406 kts | 311° |
| 2026-05-04 13:45 | 41.96369 | 15.97308 | 28399 ft | 409 kts | 311° |
| 2026-05-04 13:45 | 41.98305 | 15.94485 | 28683 ft | 412 kts | 311° |
| 2026-05-04 13:45 | 42.00254 | 15.91640 | 29052 ft | 414 kts | 311° |
| 2026-05-04 13:46 | 42.02205 | 15.88781 | 29370 ft | 416 kts | 311° |
| 2026-05-04 13:46 | 42.04160 | 15.85900 | 29676 ft | 418 kts | 311° |
| 2026-05-04 13:46 | 42.06116 | 15.83003 | 29995 ft | 419 kts | 311° |
| 2026-05-04 13:46 | 42.08075 | 15.80087 | 30277 ft | 421 kts | 311° |
| 2026-05-04 13:47 | 42.10041 | 15.77154 | 30526 ft | 423 kts | 311° |
| 2026-05-04 13:47 | 42.12014 | 15.74209 | 30743 ft | 424 kts | 311° |
| 2026-05-04 13:47 | 42.13994 | 15.71248 | 30980 ft | 426 kts | 311° |
| 2026-05-04 13:47 | 42.15979 | 15.68278 | 31255 ft | 426 kts | 311° |
| 2026-05-04 13:48 | 42.17963 | 15.65316 | 31613 ft | 424 kts | 311° |
| 2026-05-04 13:48 | 42.19944 | 15.62366 | 31898 ft | 425 kts | 311° |
| 2026-05-04 13:48 | 42.21933 | 15.59401 | 32135 ft | 426 kts | 311° |
| 2026-05-04 13:48 | 42.23898 | 15.56468 | 32430 ft | 426 kts | 311° |
| 2026-05-04 13:49 | 42.25882 | 15.53498 | 32748 ft | 426 kts | 311° |
| 2026-05-04 13:49 | 42.27859 | 15.50535 | 33075 ft | 425 kts | 311° |
| 2026-05-04 13:49 | 42.29896 | 15.47647 | 33397 ft | 424 kts | 317° |
| 2026-05-04 13:49 | 42.32216 | 15.45183 | 33734 ft | 424 kts | 324° |
| 2026-05-04 13:50 | 42.34648 | 15.42928 | 34027 ft | 424 kts | 324° |
| 2026-05-04 13:50 | 42.37066 | 15.40681 | 34103 ft | 419 kts | 324° |
| 2026-05-04 13:50 | 42.41822 | 15.36251 | 34105 ft | 413 kts | 323° |
| 2026-05-04 13:51 | 42.46546 | 15.31831 | 34111 ft | 412 kts | 323° |
| 2026-05-04 13:51 | 42.51267 | 15.27410 | 34107 ft | 414 kts | 324° |
| 2026-05-04 13:52 | 42.58412 | 15.20708 | 34108 ft | 417 kts | 324° |
| 2026-05-04 13:53 | 42.63185 | 15.16220 | 34108 ft | 417 kts | 323° |
| 2026-05-04 13:53 | 42.67959 | 15.11722 | 34096 ft | 418 kts | 323° |
| 2026-05-04 13:54 | 42.75130 | 15.04946 | 34094 ft | 418 kts | 323° |
| 2026-05-04 13:55 | 42.82296 | 14.98148 | 34091 ft | 418 kts | 323° |
| 2026-05-04 13:55 | 42.89454 | 14.91361 | 34099 ft | 417 kts | 323° |
| 2026-05-04 13:56 | 42.94213 | 14.86825 | 34098 ft | 417 kts | 323° |
| 2026-05-04 13:57 | 43.01351 | 14.80005 | 34098 ft | 417 kts | 323° |
| 2026-05-04 13:58 | 43.10838 | 14.70906 | 34113 ft | 418 kts | 322° |
| 2026-05-04 13:58 | 43.17969 | 14.64048 | 34108 ft | 418 kts | 322° |
| 2026-05-04 13:59 | 43.22727 | 14.59477 | 34102 ft | 417 kts | 322° |
| 2026-05-04 14:00 | 43.29849 | 14.52610 | 34099 ft | 417 kts | 322° |
| 2026-05-04 14:00 | 43.36946 | 14.45722 | 34103 ft | 416 kts | 322° |
| 2026-05-04 14:01 | 43.41664 | 14.41133 | 34101 ft | 415 kts | 322° |
| 2026-05-04 14:02 | 43.48734 | 14.34259 | 34094 ft | 415 kts | 322° |
| 2026-05-04 14:02 | 43.53439 | 14.29655 | 34095 ft | 415 kts | 322° |
| 2026-05-04 14:03 | 43.58146 | 14.25054 | 34087 ft | 415 kts | 322° |
| 2026-05-04 14:03 | 43.62855 | 14.20446 | 34075 ft | 415 kts | 321° |
| 2026-05-04 14:04 | 43.69927 | 14.13506 | 34070 ft | 416 kts | 321° |
| 2026-05-04 14:04 | 43.74648 | 14.08864 | 34082 ft | 417 kts | 321° |
| 2026-05-04 14:05 | 43.81757 | 14.01840 | 34070 ft | 419 kts | 321° |
| 2026-05-04 14:06 | 43.86516 | 13.97134 | 34071 ft | 420 kts | 321° |
| 2026-05-04 14:06 | 43.91275 | 13.92425 | 34070 ft | 420 kts | 321° |
| 2026-05-04 14:07 | 43.96029 | 13.87699 | 34072 ft | 421 kts | 321° |
| 2026-05-04 14:07 | 44.00762 | 13.82981 | 34065 ft | 422 kts | 321° |
| 2026-05-04 14:08 | 44.05544 | 13.78209 | 34061 ft | 424 kts | 321° |
| 2026-05-04 14:08 | 44.10350 | 13.73418 | 34061 ft | 426 kts | 321° |
| 2026-05-04 14:09 | 44.17565 | 13.66185 | 34075 ft | 426 kts | 321° |
| 2026-05-04 14:10 | 44.24775 | 13.58938 | 34093 ft | 425 kts | 321° |
| 2026-05-04 14:10 | 44.29569 | 13.54108 | 34101 ft | 425 kts | 322° |
| 2026-05-04 14:11 | 44.34367 | 13.49260 | 34088 ft | 426 kts | 322° |
| 2026-05-04 14:11 | 44.41576 | 13.41970 | 34086 ft | 426 kts | 321° |
| 2026-05-04 14:12 | 44.46368 | 13.37094 | 34092 ft | 426 kts | 321° |
| 2026-05-04 14:13 | 44.53557 | 13.29761 | 34083 ft | 426 kts | 321° |
| 2026-05-04 14:13 | 44.58350 | 13.24876 | 34076 ft | 427 kts | 322° |
| 2026-05-04 14:14 | 44.63164 | 13.19965 | 34066 ft | 428 kts | 321° |
| 2026-05-04 14:14 | 44.70414 | 13.12541 | 34060 ft | 431 kts | 321° |
| 2026-05-04 14:15 | 44.80079 | 13.02595 | 34064 ft | 433 kts | 321° |
| 2026-05-04 14:16 | 44.87364 | 12.95081 | 34083 ft | 432 kts | 321° |
| 2026-05-04 14:17 | 44.94621 | 12.87562 | 34087 ft | 431 kts | 321° |
| 2026-05-04 14:18 | 45.01888 | 12.80104 | 34076 ft | 431 kts | 326° |
| 2026-05-04 14:19 | 45.12446 | 12.71920 | 34058 ft | 433 kts | 329° |
| 2026-05-04 14:19 | 45.17744 | 12.67831 | 34042 ft | 434 kts | 329° |
| 2026-05-04 14:20 | 45.23054 | 12.63715 | 34044 ft | 435 kts | 329° |
| 2026-05-04 14:20 | 45.28370 | 12.59593 | 34056 ft | 435 kts | 328° |
| 2026-05-04 14:21 | 45.36348 | 12.53379 | 34063 ft | 436 kts | 328° |
| 2026-05-04 14:21 | 45.41678 | 12.49232 | 34066 ft | 436 kts | 329° |
| 2026-05-04 14:22 | 45.46963 | 12.45094 | 34087 ft | 436 kts | 329° |
| 2026-05-04 14:22 | 45.52277 | 12.40923 | 34074 ft | 436 kts | 329° |
| 2026-05-04 14:23 | 45.60244 | 12.34664 | 34077 ft | 436 kts | 329° |
| 2026-05-04 14:24 | 45.64656 | 12.31196 | 34046 ft | 435 kts | 329° |
| 2026-05-04 14:24 | 45.69962 | 12.27005 | 34050 ft | 435 kts | 328° |
| 2026-05-04 14:25 | 45.75263 | 12.22806 | 34055 ft | 436 kts | 328° |
| 2026-05-04 14:25 | 45.83225 | 12.16481 | 34046 ft | 437 kts | 328° |
| 2026-05-04 14:26 | 45.88542 | 12.12255 | 34043 ft | 437 kts | 328° |
| 2026-05-04 14:26 | 45.93856 | 12.08021 | 34057 ft | 437 kts | 328° |
| 2026-05-04 14:27 | 45.99171 | 12.03776 | 34043 ft | 437 kts | 328° |
| 2026-05-04 14:27 | 46.04488 | 11.99519 | 34050 ft | 437 kts | 328° |
| 2026-05-04 14:28 | 46.09806 | 11.95247 | 34069 ft | 438 kts | 328° |
| 2026-05-04 14:28 | 46.15125 | 11.90969 | 34067 ft | 438 kts | 328° |
| 2026-05-04 14:29 | 46.25732 | 11.82414 | 34057 ft | 438 kts | 328° |
| 2026-05-04 14:30 | 46.31051 | 11.78106 | 34060 ft | 438 kts | 328° |
| 2026-05-04 14:31 | 46.39043 | 11.71686 | 34060 ft | 439 kts | 333° |
| 2026-05-04 14:32 | 46.50445 | 11.65135 | 34013 ft | 441 kts | 336° |
| 2026-05-04 14:32 | 46.56150 | 11.61861 | 34011 ft | 441 kts | 336° |
| 2026-05-04 14:33 | 46.61863 | 11.58580 | 34017 ft | 441 kts | 336° |
| 2026-05-04 14:33 | 46.67573 | 11.55294 | 34018 ft | 441 kts | 336° |
| 2026-05-04 14:34 | 46.73286 | 11.52002 | 34015 ft | 441 kts | 336° |
| 2026-05-04 14:34 | 46.78993 | 11.48712 | 34024 ft | 441 kts | 336° |
| 2026-05-04 14:35 | 46.84698 | 11.45416 | 34028 ft | 442 kts | 336° |
| 2026-05-04 14:35 | 46.90414 | 11.42094 | 34004 ft | 442 kts | 336° |
| 2026-05-04 14:36 | 46.96191 | 11.38969 | 34001 ft | 445 kts | 344° |
| 2026-05-04 14:36 | 47.02319 | 11.38097 | 33984 ft | 449 kts | 2° |
| 2026-05-04 14:37 | 47.08558 | 11.38757 | 33975 ft | 450 kts | 2° |
| 2026-05-04 14:37 | 47.14806 | 11.39372 | 33962 ft | 450 kts | 2° |
| 2026-05-04 14:38 | 47.21054 | 11.39986 | 33964 ft | 450 kts | 2° |
| 2026-05-04 14:38 | 47.27309 | 11.40404 | 33975 ft | 449 kts | 359° |
| 2026-05-04 14:39 | 47.33551 | 11.40358 | 33985 ft | 448 kts | 357° |
| 2026-05-04 14:39 | 47.39783 | 11.40239 | 33980 ft | 448 kts | 358° |
| 2026-05-04 14:40 | 47.49113 | 11.40114 | 33971 ft | 446 kts | 358° |
| 2026-05-04 14:40 | 47.55322 | 11.40044 | 33964 ft | 446 kts | 358° |
| 2026-05-04 14:41 | 47.61522 | 11.39980 | 33950 ft | 445 kts | 357° |
| 2026-05-04 14:42 | 47.73849 | 11.38552 | 33956 ft | 444 kts | 351° |
| 2026-05-04 14:42 | 47.79988 | 11.37556 | 33956 ft | 444 kts | 352° |
| 2026-05-04 14:43 | 47.86141 | 11.36691 | 33971 ft | 444 kts | 353° |
| 2026-05-04 14:43 | 47.92305 | 11.36110 | 33982 ft | 444 kts | 355° |
| 2026-05-04 14:44 | 47.98478 | 11.35684 | 33986 ft | 444 kts | 355° |
| 2026-05-04 14:44 | 48.04647 | 11.35216 | 33985 ft | 443 kts | 354° |
| 2026-05-04 14:45 | 48.10825 | 11.34468 | 33977 ft | 449 kts | 350° |
| 2026-05-04 14:45 | 48.17013 | 11.33192 | 33393 ft | 446 kts | 348° |
| 2026-05-04 14:46 | 48.20023 | 11.32516 | 32857 ft | 441 kts | 348° |
| 2026-05-04 14:46 | 48.23009 | 11.31633 | 32326 ft | 434 kts | 340° |
| 2026-05-04 14:46 | 48.25800 | 11.30011 | 31754 ft | 427 kts | 329° |
| 2026-05-04 14:46 | 48.28320 | 11.27707 | 31190 ft | 421 kts | 319° |
| 2026-05-04 14:47 | 48.30486 | 11.24825 | 30642 ft | 414 kts | 311° |
| 2026-05-04 14:47 | 48.32496 | 11.21729 | 30120 ft | 412 kts | 310° |
| 2026-05-04 14:47 | 48.34487 | 11.18639 | 29512 ft | 410 kts | 310° |
| 2026-05-04 14:47 | 48.36466 | 11.15561 | 28891 ft | 408 kts | 310° |
| 2026-05-04 14:48 | 48.38434 | 11.12497 | 28301 ft | 406 kts | 310° |
| 2026-05-04 14:48 | 48.40391 | 11.09451 | 27705 ft | 404 kts | 310° |
| 2026-05-04 14:48 | 48.42149 | 11.06716 | 27199 ft | 402 kts | 310° |
| 2026-05-04 14:49 | 48.42199 | 11.06638 | 27189 ft | 402 kts | 310° |
| 2026-05-04 14:49 | 48.44150 | 11.03601 | 26611 ft | 399 kts | 310° |
| 2026-05-04 14:49 | 48.46072 | 11.00601 | 26065 ft | 397 kts | 310° |
| 2026-05-04 14:49 | 48.47985 | 10.97610 | 25523 ft | 395 kts | 310° |
| 2026-05-04 14:50 | 48.49885 | 10.94638 | 24993 ft | 393 kts | 310° |
| 2026-05-04 14:50 | 48.51765 | 10.91667 | 24460 ft | 390 kts | 310° |
| 2026-05-04 14:50 | 48.53626 | 10.88698 | 23949 ft | 388 kts | 310° |
| 2026-05-04 14:50 | 48.55466 | 10.85742 | 23432 ft | 386 kts | 309° |
| 2026-05-04 14:51 | 48.57303 | 10.82786 | 22844 ft | 384 kts | 309° |
| 2026-05-04 14:51 | 48.59130 | 10.79845 | 22262 ft | 384 kts | 309° |
| 2026-05-04 14:51 | 48.60958 | 10.76913 | 21687 ft | 383 kts | 310° |
| 2026-05-04 14:51 | 48.62791 | 10.73994 | 21122 ft | 382 kts | 310° |
| 2026-05-04 14:52 | 48.64629 | 10.71084 | 20572 ft | 382 kts | 310° |
| 2026-05-04 14:52 | 48.66460 | 10.68189 | 20030 ft | 381 kts | 310° |
| 2026-05-04 14:52 | 48.68288 | 10.65291 | 19516 ft | 380 kts | 310° |
| 2026-05-04 14:52 | 48.70112 | 10.62395 | 18978 ft | 379 kts | 310° |
| 2026-05-04 14:53 | 48.71685 | 10.59313 | 18468 ft | 372 kts | 295° |
| 2026-05-04 14:53 | 48.72602 | 10.55709 | 17911 ft | 365 kts | 279° |
| 2026-05-04 14:53 | 48.72802 | 10.51923 | 17327 ft | 359 kts | 263° |
| 2026-05-04 14:53 | 48.72517 | 10.48176 | 16765 ft | 358 kts | 260° |
| 2026-05-04 14:54 | 48.72209 | 10.44441 | 16203 ft | 357 kts | 260° |
| 2026-05-04 14:54 | 48.71900 | 10.40711 | 15651 ft | 357 kts | 260° |
| 2026-05-04 14:54 | 48.71589 | 10.36974 | 15107 ft | 357 kts | 260° |
| 2026-05-04 14:54 | 48.71277 | 10.33249 | 14574 ft | 357 kts | 260° |